createdAt,value
2023-04-27T00:00:01.234Z,927.29
2023-04-27T00:01:01.174Z,927.29
2023-04-27T00:02:01.944Z,927.28
2023-04-27T00:03:01.490Z,927.30
2023-04-27T00:04:01.414Z,927.30
2023-04-27T00:05:01.746Z,927.31
2023-04-27T00:06:01.528Z,927.32
2023-04-27T00:07:01.118Z,927.34
2023-04-27T00:08:01.173Z,927.34
2023-04-27T00:09:01.202Z,927.36
2023-04-27T00:10:01.803Z,927.35
2023-04-27T00:11:04.271Z,927.34
2023-04-27T00:12:01.106Z,927.33
2023-04-27T00:13:01.111Z,927.33
2023-04-27T00:14:01.131Z,927.33
2023-04-27T00:15:01.332Z,927.32
2023-04-27T00:16:01.148Z,927.32
2023-04-27T00:17:01.965Z,927.31
2023-04-27T00:18:01.068Z,927.30
2023-04-27T00:19:01.004Z,927.30
2023-04-27T00:20:01.046Z,927.30
2023-04-27T00:21:01.286Z,927.30
2023-04-27T00:22:01.089Z,927.29
2023-04-27T00:23:01.100Z,927.26
2023-04-27T00:24:01.120Z,927.26
2023-04-27T00:25:01.007Z,927.25
2023-04-27T00:26:01.107Z,927.25
2023-04-27T00:27:01.141Z,927.24
2023-04-27T00:28:00.925Z,927.23
2023-04-27T00:29:00.931Z,927.20
2023-04-27T00:30:00.854Z,927.20
2023-04-27T00:31:01.638Z,927.20
2023-04-27T00:32:00.844Z,927.19
2023-04-27T00:33:01.065Z,927.18
2023-04-27T00:34:00.980Z,927.16
2023-04-27T00:35:00.854Z,927.15
2023-04-27T00:36:00.747Z,927.14
2023-04-27T00:37:01.362Z,927.13
2023-04-27T00:38:00.912Z,927.11
2023-04-27T00:39:00.867Z,927.11
2023-04-27T00:40:01.025Z,927.10
2023-04-27T00:41:00.782Z,927.09
2023-04-27T00:42:01.200Z,927.08
2023-04-27T00:43:01.211Z,927.09
2023-04-27T00:44:00.912Z,927.11
2023-04-27T00:45:00.816Z,927.11
2023-04-27T00:46:00.861Z,927.11
2023-04-27T00:47:00.714Z,927.12
2023-04-27T00:48:01.517Z,927.13
2023-04-27T00:49:01.001Z,927.13
2023-04-27T00:50:01.414Z,927.14
2023-04-27T00:51:00.746Z,927.15
2023-04-27T00:52:00.696Z,927.14
2023-04-27T00:53:00.871Z,927.15
2023-04-27T00:54:00.658Z,927.13
2023-04-27T00:55:01.340Z,927.11
2023-04-27T00:56:00.789Z,927.11
2023-04-27T00:57:01.137Z,927.10
2023-04-27T00:58:00.600Z,927.08
2023-04-27T00:59:00.755Z,927.09
2023-04-27T01:00:00.633Z,927.07
2023-04-27T01:01:00.671Z,927.09
2023-04-27T01:02:01.938Z,927.06
2023-04-27T01:03:00.993Z,927.05
2023-04-27T01:04:00.946Z,927.03
2023-04-27T01:05:00.685Z,927.04
2023-04-27T01:06:00.949Z,927.06
2023-04-27T01:07:00.551Z,927.07
2023-04-27T01:08:01.376Z,927.07
2023-04-27T01:09:01.704Z,927.08
2023-04-27T01:10:02.624Z,927.07
2023-04-27T01:11:01.086Z,927.07
2023-04-27T01:12:01.128Z,927.08
2023-04-27T01:13:01.079Z,927.08
2023-04-27T01:14:00.937Z,927.08
2023-04-27T01:15:00.998Z,927.09
2023-04-27T01:16:00.592Z,927.09
2023-04-27T01:17:00.948Z,927.09
2023-04-27T01:18:00.720Z,927.09
2023-04-27T01:19:01.323Z,927.10
2023-04-27T01:20:00.931Z,927.11
2023-04-27T01:21:00.910Z,927.08
2023-04-27T01:22:00.796Z,927.08
2023-04-27T01:23:00.506Z,927.05
2023-04-27T01:24:00.641Z,927.04
2023-04-27T01:25:00.557Z,927.05
2023-04-27T01:26:01.370Z,927.04
2023-04-27T01:27:00.472Z,927.05
2023-04-27T01:28:00.370Z,927.05
2023-04-27T01:29:01.707Z,927.07
2023-04-27T01:30:00.279Z,927.06
2023-04-27T01:31:00.406Z,927.05
2023-04-27T01:32:00.800Z,927.06
2023-04-27T01:33:00.878Z,927.09
2023-04-27T01:34:01.043Z,927.07
2023-04-27T01:35:00.312Z,927.07
2023-04-27T01:36:01.039Z,927.06
2023-04-27T01:37:00.218Z,927.05
2023-04-27T01:38:00.386Z,927.07
2023-04-27T01:39:00.205Z,927.05
2023-04-27T01:40:00.180Z,927.05
2023-04-27T01:41:03.413Z,927.05
2023-04-27T01:42:00.248Z,927.04
2023-04-27T01:43:00.133Z,927.04
2023-04-27T01:44:00.946Z,927.05
2023-04-27T01:45:00.205Z,927.07
2023-04-27T01:46:00.198Z,927.08
2023-04-27T01:47:00.295Z,927.10
2023-04-27T01:48:00.180Z,927.10
2023-04-27T01:49:00.667Z,927.10
2023-04-27T01:50:00.230Z,927.11
2023-04-27T01:51:00.829Z,927.13
2023-04-27T01:52:00.120Z,927.13
2023-04-27T01:53:01.202Z,927.13
2023-04-27T01:53:59.994Z,927.13
2023-04-27T01:55:00.034Z,927.16
2023-04-27T01:56:00.553Z,927.18
2023-04-27T01:57:00.353Z,927.18
2023-04-27T01:58:00.664Z,927.19
2023-04-27T01:59:00.578Z,927.19
2023-04-27T02:00:00.854Z,927.17
2023-04-27T02:01:00.094Z,927.18
2023-04-27T02:02:00.053Z,927.21
2023-04-27T02:03:00.124Z,927.21
2023-04-27T02:04:00.326Z,927.20
2023-04-27T02:05:00.002Z,927.20
2023-04-27T02:06:00.008Z,927.20
2023-04-27T02:06:59.875Z,927.19
2023-04-27T02:08:00.120Z,927.17
2023-04-27T02:09:00.330Z,927.16
2023-04-27T02:09:59.904Z,927.18
2023-04-27T02:10:59.939Z,927.19
2023-04-27T02:11:59.835Z,927.19
2023-04-27T02:12:59.918Z,927.19
2023-04-27T02:13:59.813Z,927.18
2023-04-27T02:14:59.851Z,927.16
2023-04-27T02:15:59.825Z,927.15
2023-04-27T02:16:59.800Z,927.17
2023-04-27T02:18:00.469Z,927.18
2023-04-27T02:19:00.286Z,927.16
2023-04-27T02:19:59.713Z,927.17
2023-04-27T02:20:59.816Z,927.18
2023-04-27T02:21:59.699Z,927.20
2023-04-27T02:22:59.723Z,927.17
2023-04-27T02:23:59.747Z,927.19
2023-04-27T02:24:59.645Z,927.20
2023-04-27T02:25:59.652Z,927.19
2023-04-27T02:27:00.256Z,927.18
2023-04-27T02:27:59.691Z,927.18
2023-04-27T02:28:59.588Z,927.18
2023-04-27T02:29:59.669Z,927.17
2023-04-27T02:30:59.687Z,927.17
2023-04-27T02:31:59.694Z,927.19
2023-04-27T02:32:59.646Z,927.20
2023-04-27T02:33:59.604Z,927.20
2023-04-27T02:34:59.721Z,927.19
2023-04-27T02:36:00.428Z,927.20
2023-04-27T02:36:59.517Z,927.20
2023-04-27T02:37:59.540Z,927.19
2023-04-27T02:38:59.472Z,927.17
2023-04-27T02:39:59.466Z,927.13
2023-04-27T02:40:59.560Z,927.10
2023-04-27T02:41:59.456Z,927.10
2023-04-27T02:42:59.925Z,927.08
2023-04-27T02:43:59.469Z,927.05
2023-04-27T02:44:59.380Z,927.06
2023-04-27T02:45:59.457Z,927.04
2023-04-27T02:46:59.564Z,927.05
2023-04-27T02:47:59.546Z,927.05
2023-04-27T02:48:59.792Z,927.03
2023-04-27T02:49:59.499Z,927.02
2023-04-27T02:50:59.319Z,927.01
2023-04-27T02:51:59.314Z,926.99
2023-04-27T02:52:59.404Z,926.98
2023-04-27T02:53:59.322Z,926.95
2023-04-27T02:54:59.849Z,926.95
2023-04-27T02:55:59.331Z,926.93
2023-04-27T02:56:59.244Z,926.89
2023-04-27T02:57:59.246Z,926.91
2023-04-27T02:58:59.215Z,926.90
2023-04-27T02:59:59.364Z,926.91
2023-04-27T03:00:59.910Z,926.89
2023-04-27T03:01:59.281Z,926.86
2023-04-27T03:02:59.305Z,926.88
2023-04-27T03:03:59.333Z,926.88
2023-04-27T03:04:59.189Z,926.88
2023-04-27T03:05:59.199Z,926.88
2023-04-27T03:06:59.281Z,926.86
2023-04-27T03:07:59.199Z,926.88
2023-04-27T03:08:59.112Z,926.86
2023-04-27T03:09:59.531Z,926.85
2023-04-27T03:10:59.223Z,926.84
2023-04-27T03:11:59.530Z,926.82
2023-04-27T03:13:00.876Z,926.81
2023-04-27T03:13:59.257Z,926.80
2023-04-27T03:14:59.138Z,926.82
2023-04-27T03:15:59.161Z,926.80
2023-04-27T03:16:59.148Z,926.81
2023-04-27T03:17:59.805Z,926.81
2023-04-27T03:18:59.368Z,926.80
2023-04-27T03:19:59.095Z,926.79
2023-04-27T03:20:58.989Z,926.79
2023-04-27T03:21:59.048Z,926.83
2023-04-27T03:22:59.292Z,926.80
2023-04-27T03:23:59.093Z,926.79
2023-04-27T03:24:59.301Z,926.79
2023-04-27T03:25:59.002Z,926.78
2023-04-27T03:26:59.027Z,926.80
2023-04-27T03:27:59.125Z,926.81
2023-04-27T03:28:59.040Z,926.80
2023-04-27T03:29:59.041Z,926.79
2023-04-27T03:30:59.352Z,926.76
2023-04-27T03:31:59.106Z,926.78
2023-04-27T03:32:58.881Z,926.79
2023-04-27T03:33:58.965Z,926.79
2023-04-27T03:34:58.957Z,926.80
2023-04-27T03:35:59.012Z,926.79
2023-04-27T03:36:59.396Z,926.78
2023-04-27T03:37:59.006Z,926.78
2023-04-27T03:38:58.903Z,926.77
2023-04-27T03:39:58.938Z,926.77
2023-04-27T03:40:58.898Z,926.77
2023-04-27T03:41:58.912Z,926.77
2023-04-27T03:42:59.274Z,926.76
2023-04-27T03:43:58.724Z,926.74
2023-04-27T03:44:58.833Z,926.73
2023-04-27T03:45:58.816Z,926.70
2023-04-27T03:46:58.742Z,926.70
2023-04-27T03:47:58.783Z,926.69
2023-04-27T03:48:58.843Z,926.68
2023-04-27T03:49:58.651Z,926.68
2023-04-27T03:50:58.870Z,926.67
2023-04-27T03:51:58.673Z,926.66
2023-04-27T03:52:58.689Z,926.64
2023-04-27T03:53:58.665Z,926.61
2023-04-27T03:54:58.686Z,926.58
2023-04-27T03:55:58.583Z,926.58
2023-04-27T03:56:58.596Z,926.56
2023-04-27T03:57:58.662Z,926.55
2023-04-27T03:58:58.714Z,926.54
2023-04-27T03:59:58.593Z,926.52
2023-04-27T04:00:58.629Z,926.51
2023-04-27T04:02:00.903Z,926.48
2023-04-27T04:02:58.761Z,926.46
2023-04-27T04:03:58.808Z,926.44
2023-04-27T04:04:58.694Z,926.41
2023-04-27T04:05:58.554Z,926.37
2023-04-27T04:06:58.614Z,926.32
2023-04-27T04:07:58.466Z,926.30
2023-04-27T04:08:58.477Z,926.28
2023-04-27T04:09:58.585Z,926.29
2023-04-27T04:10:58.569Z,926.28
2023-04-27T04:11:58.554Z,926.28
2023-04-27T04:12:58.790Z,926.27
2023-04-27T04:13:58.423Z,926.27
2023-04-27T04:14:58.415Z,926.26
2023-04-27T04:15:58.429Z,926.25
2023-04-27T04:16:58.406Z,926.26
2023-04-27T04:17:58.472Z,926.24
2023-04-27T04:18:58.445Z,926.24
2023-04-27T04:19:58.349Z,926.23
2023-04-27T04:20:58.335Z,926.20
2023-04-27T04:21:58.385Z,926.20
2023-04-27T04:22:58.363Z,926.19
2023-04-27T04:23:58.295Z,926.19
2023-04-27T04:24:58.304Z,926.19
2023-04-27T04:25:58.988Z,926.16
2023-04-27T04:26:58.313Z,926.16
2023-04-27T04:27:58.317Z,926.15
2023-04-27T04:28:58.943Z,926.14
2023-04-27T04:29:58.309Z,926.12
2023-04-27T04:30:58.322Z,926.10
2023-04-27T04:31:58.311Z,926.09
2023-04-27T04:32:58.485Z,926.08
2023-04-27T04:33:58.322Z,926.08
2023-04-27T04:34:58.337Z,926.08
2023-04-27T04:35:58.344Z,926.08
2023-04-27T04:36:58.248Z,926.07
2023-04-27T04:37:58.350Z,926.06
2023-04-27T04:38:58.363Z,926.05
2023-04-27T04:39:58.342Z,926.05
2023-04-27T04:40:58.383Z,926.04
2023-04-27T04:41:58.205Z,926.04
2023-04-27T04:42:58.264Z,926.03
2023-04-27T04:43:58.126Z,926.02
2023-04-27T04:44:58.119Z,926.00
2023-04-27T04:45:58.334Z,925.96
2023-04-27T04:46:58.221Z,925.92
2023-04-27T04:47:58.117Z,925.88
2023-04-27T04:48:58.150Z,925.85
2023-04-27T04:49:58.132Z,925.83
2023-04-27T04:50:58.076Z,925.82
2023-04-27T04:51:58.072Z,925.81
2023-04-27T04:52:58.124Z,925.79
2023-04-27T04:53:59.017Z,925.78
2023-04-27T04:54:57.985Z,925.76
2023-04-27T04:55:58.114Z,925.75
2023-04-27T04:56:58.050Z,925.74
2023-04-27T04:57:58.267Z,925.73
2023-04-27T04:58:58.062Z,925.74
2023-04-27T04:59:57.973Z,925.76
2023-04-27T05:00:57.968Z,925.76
2023-04-27T05:01:58.166Z,925.76
2023-04-27T05:02:58.133Z,925.73
2023-04-27T05:03:58.123Z,925.72
2023-04-27T05:04:58.047Z,925.72
2023-04-27T05:05:57.853Z,925.72
2023-04-27T05:06:57.872Z,925.71
2023-04-27T05:07:57.926Z,925.69
2023-04-27T05:08:57.877Z,925.67
2023-04-27T05:09:57.869Z,925.66
2023-04-27T05:10:57.893Z,925.65
2023-04-27T05:11:57.893Z,925.64
2023-04-27T05:12:57.759Z,925.64
2023-04-27T05:13:57.853Z,925.62
2023-04-27T05:14:57.848Z,925.61
2023-04-27T05:15:58.362Z,925.61
2023-04-27T05:16:57.716Z,925.62
2023-04-27T05:17:57.788Z,925.63
2023-04-27T05:18:57.692Z,925.62
2023-04-27T05:19:57.730Z,925.62
2023-04-27T05:20:57.804Z,925.63
2023-04-27T05:21:58.326Z,925.64
2023-04-27T05:22:57.714Z,925.63
2023-04-27T05:23:57.722Z,925.62
2023-04-27T05:24:57.732Z,925.61
2023-04-27T05:25:57.636Z,925.61
2023-04-27T05:26:58.119Z,925.61
2023-04-27T05:27:57.849Z,925.62
2023-04-27T05:28:57.665Z,925.63
2023-04-27T05:29:57.611Z,925.61
2023-04-27T05:30:57.712Z,925.59
2023-04-27T05:31:57.597Z,925.59
2023-04-27T05:32:57.682Z,925.61
2023-04-27T05:33:57.824Z,925.62
2023-04-27T05:34:57.524Z,925.60
2023-04-27T05:35:57.536Z,925.59
2023-04-27T05:36:57.499Z,925.58
2023-04-27T05:37:57.506Z,925.57
2023-04-27T05:38:57.515Z,925.57
2023-04-27T05:39:57.620Z,925.58
2023-04-27T05:40:57.729Z,925.57
2023-04-27T05:41:57.583Z,925.55
2023-04-27T05:42:57.542Z,925.54
2023-04-27T05:43:57.600Z,925.53
2023-04-27T05:44:57.500Z,925.54
2023-04-27T05:45:57.532Z,925.54
2023-04-27T05:46:57.457Z,925.56
2023-04-27T05:47:58.319Z,925.56
2023-04-27T05:48:57.476Z,925.56
2023-04-27T05:49:57.480Z,925.55
2023-04-27T05:50:57.478Z,925.54
2023-04-27T05:51:57.441Z,925.53
2023-04-27T05:52:57.517Z,925.51
2023-04-27T05:53:57.409Z,925.50
2023-04-27T05:54:57.379Z,925.48
2023-04-27T05:55:57.364Z,925.49
2023-04-27T05:56:57.421Z,925.47
2023-04-27T05:58:07.174Z,925.46
2023-04-27T05:58:57.350Z,925.46
2023-04-27T05:59:57.340Z,925.46
2023-04-27T06:00:57.448Z,925.47
2023-04-27T06:01:57.391Z,925.47
2023-04-27T06:02:57.430Z,925.46
2023-04-27T06:03:57.423Z,925.47
2023-04-27T06:04:57.455Z,925.48
2023-04-27T06:05:59.021Z,925.48
2023-04-27T06:06:57.243Z,925.48
2023-04-27T06:07:57.195Z,925.50
2023-04-27T06:08:57.304Z,925.51
2023-04-27T06:09:57.315Z,925.52
2023-04-27T06:10:57.203Z,925.53
2023-04-27T06:11:57.227Z,925.53
2023-04-27T06:12:57.225Z,925.52
2023-04-27T06:13:57.270Z,925.52
2023-04-27T06:14:57.197Z,925.55
2023-04-27T06:15:57.257Z,925.55
2023-04-27T06:16:57.208Z,925.55
2023-04-27T06:17:57.296Z,925.56
2023-04-27T06:18:57.168Z,925.55
2023-04-27T06:19:57.227Z,925.54
2023-04-27T06:20:57.276Z,925.52
2023-04-27T06:21:57.135Z,925.51
2023-04-27T06:22:57.187Z,925.51
2023-04-27T06:23:57.212Z,925.51
2023-04-27T06:24:57.097Z,925.52
2023-04-27T06:25:57.141Z,925.53
2023-04-27T06:26:57.126Z,925.51
2023-04-27T06:27:57.120Z,925.51
2023-04-27T06:28:57.121Z,925.51
2023-04-27T06:29:57.035Z,925.49
2023-04-27T06:30:57.134Z,925.51
2023-04-27T06:31:57.050Z,925.50
2023-04-27T06:32:57.095Z,925.46
2023-04-27T06:33:56.991Z,925.46
2023-04-27T06:34:57.810Z,925.44
2023-04-27T06:35:57.000Z,925.42
2023-04-27T06:36:56.909Z,925.41
2023-04-27T06:37:57.005Z,925.42
2023-04-27T06:38:57.087Z,925.43
2023-04-27T06:39:56.916Z,925.43
2023-04-27T06:40:56.939Z,925.44
2023-04-27T06:41:56.907Z,925.43
2023-04-27T06:42:57.287Z,925.43
2023-04-27T06:43:58.564Z,925.43
2023-04-27T06:44:56.850Z,925.42
2023-04-27T06:45:56.860Z,925.41
2023-04-27T06:46:56.853Z,925.41
2023-04-27T06:47:56.776Z,925.40
2023-04-27T06:48:56.767Z,925.38
2023-04-27T06:49:57.397Z,925.37
2023-04-27T06:50:56.806Z,925.36
2023-04-27T06:51:56.784Z,925.35
2023-04-27T06:52:56.714Z,925.35
2023-04-27T06:53:57.489Z,925.35
2023-04-27T06:54:56.705Z,925.34
2023-04-27T06:55:56.718Z,925.36
2023-04-27T06:56:56.713Z,925.35
2023-04-27T06:57:56.702Z,925.37
2023-04-27T06:58:56.643Z,925.36
2023-04-27T06:59:56.639Z,925.34
2023-04-27T07:00:56.640Z,925.34
2023-04-27T07:01:56.705Z,925.34
2023-04-27T07:02:56.774Z,925.35
2023-04-27T07:03:56.873Z,925.34
2023-04-27T07:04:56.612Z,925.34
2023-04-27T07:05:56.706Z,925.34
2023-04-27T07:06:56.576Z,925.36
2023-04-27T07:07:56.716Z,925.37
2023-04-27T07:08:56.594Z,925.38
2023-04-27T07:09:56.491Z,925.38
2023-04-27T07:10:56.601Z,925.37
2023-04-27T07:11:56.603Z,925.36
2023-04-27T07:12:56.513Z,925.34
2023-04-27T07:13:56.522Z,925.35
2023-04-27T07:14:56.460Z,925.35
2023-04-27T07:15:56.582Z,925.37
2023-04-27T07:16:56.584Z,925.36
2023-04-27T07:17:56.524Z,925.35
2023-04-27T07:18:56.588Z,925.34
2023-04-27T07:19:56.487Z,925.33
2023-04-27T07:20:56.480Z,925.34
2023-04-27T07:21:56.409Z,925.36
2023-04-27T07:22:56.380Z,925.35
2023-04-27T07:23:56.421Z,925.36
2023-04-27T07:24:56.428Z,925.37
2023-04-27T07:25:56.404Z,925.39
2023-04-27T07:26:56.548Z,925.40
2023-04-27T07:27:56.416Z,925.40
2023-04-27T07:28:56.466Z,925.40
2023-04-27T07:29:56.354Z,925.42
2023-04-27T07:30:56.322Z,925.43
2023-04-27T07:31:56.381Z,925.44
2023-04-27T07:32:56.393Z,925.44
2023-04-27T07:33:56.288Z,925.44
2023-04-27T07:34:56.359Z,925.46
2023-04-27T07:35:56.292Z,925.45
2023-04-27T07:36:56.403Z,925.43
2023-04-27T07:37:56.370Z,925.41
2023-04-27T07:38:56.319Z,925.40
2023-04-27T07:39:56.282Z,925.37
2023-04-27T07:40:56.291Z,925.35
2023-04-27T07:41:56.195Z,925.34
2023-04-27T07:42:56.309Z,925.32
2023-04-27T07:43:56.211Z,925.30
2023-04-27T07:44:56.433Z,925.30
2023-04-27T07:45:56.396Z,925.33
2023-04-27T07:46:56.141Z,925.34
2023-04-27T07:47:57.639Z,925.36
2023-04-27T07:48:56.152Z,925.38
2023-04-27T07:49:56.169Z,925.36
2023-04-27T07:50:56.170Z,925.37
2023-04-27T07:51:56.097Z,925.37
2023-04-27T07:52:56.189Z,925.37
2023-04-27T07:53:56.191Z,925.38
2023-04-27T07:54:56.019Z,925.35
2023-04-27T07:55:56.012Z,925.36
2023-04-27T07:56:56.099Z,925.35
2023-04-27T07:57:56.418Z,925.36
2023-04-27T07:58:56.040Z,925.35
2023-04-27T07:59:58.892Z,925.34
2023-04-27T08:00:56.051Z,925.33
2023-04-27T08:02:07.102Z,925.35
2023-04-27T08:02:56.254Z,925.37
2023-04-27T08:03:56.734Z,925.36
2023-04-27T08:04:57.152Z,925.38
2023-04-27T08:05:56.515Z,925.40
2023-04-27T08:06:56.539Z,925.42
2023-04-27T08:07:56.434Z,925.43
2023-04-27T08:08:55.902Z,925.45
2023-04-27T08:09:55.998Z,925.45
2023-04-27T08:10:55.990Z,925.45
2023-04-27T08:11:56.846Z,925.42
2023-04-27T08:12:55.917Z,925.42
2023-04-27T08:13:55.898Z,925.41
2023-04-27T08:14:55.915Z,925.41
2023-04-27T08:15:56.532Z,925.41
2023-04-27T08:16:55.994Z,925.41
2023-04-27T08:17:56.462Z,925.42
2023-04-27T08:18:55.789Z,925.44
2023-04-27T08:19:55.777Z,925.45
2023-04-27T08:20:55.776Z,925.46
2023-04-27T08:21:55.928Z,925.46
2023-04-27T08:22:55.861Z,925.46
2023-04-27T08:23:55.820Z,925.47
2023-04-27T08:24:55.699Z,925.48
2023-04-27T08:25:55.779Z,925.52
2023-04-27T08:26:55.788Z,925.54
2023-04-27T08:27:55.781Z,925.55
2023-04-27T08:28:56.419Z,925.58
2023-04-27T08:29:55.628Z,925.58
2023-04-27T08:30:55.762Z,925.58
2023-04-27T08:31:56.980Z,925.59
2023-04-27T08:32:55.682Z,925.58
2023-04-27T08:33:55.657Z,925.58
2023-04-27T08:34:55.728Z,925.58
2023-04-27T08:35:55.644Z,925.60
2023-04-27T08:36:55.585Z,925.60
2023-04-27T08:37:55.562Z,925.62
2023-04-27T08:38:55.671Z,925.62
2023-04-27T08:39:55.676Z,925.63
2023-04-27T08:40:55.676Z,925.64
2023-04-27T08:41:55.590Z,925.66
2023-04-27T08:42:55.597Z,925.67
2023-04-27T08:43:56.423Z,925.69
2023-04-27T08:44:55.592Z,925.69
2023-04-27T08:45:55.570Z,925.71
2023-04-27T08:46:56.421Z,925.71
2023-04-27T08:47:55.563Z,925.72
2023-04-27T08:48:55.446Z,925.72
2023-04-27T08:49:55.442Z,925.72
2023-04-27T08:50:55.449Z,925.73
2023-04-27T08:51:55.470Z,925.77
2023-04-27T08:52:55.545Z,925.78
2023-04-27T08:53:55.374Z,925.78
2023-04-27T08:54:55.376Z,925.78
2023-04-27T08:55:55.396Z,925.78
2023-04-27T08:56:55.389Z,925.79
2023-04-27T08:57:55.468Z,925.83
2023-04-27T08:58:55.418Z,925.83
2023-04-27T08:59:55.407Z,925.83
2023-04-27T09:00:55.317Z,925.84
2023-04-27T09:01:55.418Z,925.85
2023-04-27T09:02:55.665Z,925.84
2023-04-27T09:03:56.644Z,925.86
2023-04-27T09:04:55.418Z,925.87
2023-04-27T09:06:04.341Z,925.87
2023-04-27T09:06:55.341Z,925.85
2023-04-27T09:07:55.351Z,925.85
2023-04-27T09:08:55.355Z,925.86
2023-04-27T09:09:55.263Z,925.84
2023-04-27T09:10:55.265Z,925.86
2023-04-27T09:11:55.194Z,925.86
2023-04-27T09:12:55.270Z,925.87
2023-04-27T09:13:55.275Z,925.87
2023-04-27T09:14:55.392Z,925.87
2023-04-27T09:15:55.431Z,925.90
2023-04-27T09:16:55.221Z,925.93
2023-04-27T09:17:55.258Z,925.95
2023-04-27T09:18:55.131Z,925.96
2023-04-27T09:19:55.528Z,925.95
2023-04-27T09:20:55.786Z,925.97
2023-04-27T09:21:55.154Z,925.97
2023-04-27T09:22:55.152Z,925.97
2023-04-27T09:23:55.554Z,925.97
2023-04-27T09:24:55.878Z,925.98
2023-04-27T09:25:55.078Z,926.01
2023-04-27T09:26:55.043Z,926.05
2023-04-27T09:27:55.347Z,926.07
2023-04-27T09:28:55.149Z,926.10
2023-04-27T09:29:55.104Z,926.13
2023-04-27T09:30:54.996Z,926.15
2023-04-27T09:31:54.922Z,926.19
2023-04-27T09:32:55.153Z,926.20
2023-04-27T09:33:54.917Z,926.20
2023-04-27T09:34:54.985Z,926.20
2023-04-27T09:35:54.929Z,926.21
2023-04-27T09:36:54.931Z,926.20
2023-04-27T09:37:54.970Z,926.21
2023-04-27T09:38:54.852Z,926.21
2023-04-27T09:39:54.854Z,926.22
2023-04-27T09:40:54.849Z,926.23
2023-04-27T09:41:54.870Z,926.26
2023-04-27T09:42:54.871Z,926.28
2023-04-27T09:43:57.011Z,926.31
2023-04-27T09:44:54.860Z,926.32
2023-04-27T09:45:54.821Z,926.32
2023-04-27T09:46:54.869Z,926.35
2023-04-27T09:47:54.922Z,926.36
2023-04-27T09:48:54.814Z,926.37
2023-04-27T09:49:54.716Z,926.40
2023-04-27T09:50:54.721Z,926.42
2023-04-27T09:51:54.696Z,926.42
2023-04-27T09:52:54.749Z,926.42
2023-04-27T09:53:54.752Z,926.45
2023-04-27T09:54:54.737Z,926.47
2023-04-27T09:55:54.724Z,926.48
2023-04-27T09:56:56.510Z,926.49
2023-04-27T09:57:54.721Z,926.49
2023-04-27T09:58:55.290Z,926.49
2023-04-27T09:59:54.655Z,926.51
2023-04-27T10:00:54.602Z,926.52
2023-04-27T10:01:54.603Z,926.53
2023-04-27T10:02:54.731Z,926.52
2023-04-27T10:03:54.741Z,926.51
2023-04-27T10:04:54.590Z,926.49
2023-04-27T10:05:54.575Z,926.49
2023-04-27T10:06:55.943Z,926.50
2023-04-27T10:07:54.543Z,926.53
2023-04-27T10:08:54.645Z,926.56
2023-04-27T10:09:54.504Z,926.56
2023-04-27T10:10:54.526Z,926.56
2023-04-27T10:11:54.519Z,926.57
2023-04-27T10:12:54.459Z,926.56
2023-04-27T10:13:55.124Z,926.56
2023-04-27T10:14:54.552Z,926.56
2023-04-27T10:15:54.440Z,926.58
2023-04-27T10:16:54.578Z,926.61
2023-04-27T10:17:54.514Z,926.62
2023-04-27T10:18:55.509Z,926.62
2023-04-27T10:19:56.656Z,926.64
2023-04-27T10:20:54.390Z,926.64
2023-04-27T10:21:54.381Z,926.68
2023-04-27T10:22:54.396Z,926.69
2023-04-27T10:23:54.386Z,926.69
2023-04-27T10:24:54.405Z,926.69
2023-04-27T10:25:54.414Z,926.69
2023-04-27T10:26:54.333Z,926.70
2023-04-27T10:27:54.420Z,926.72
2023-04-27T10:28:54.437Z,926.74
2023-04-27T10:29:54.338Z,926.76
2023-04-27T10:30:54.968Z,926.77
2023-04-27T10:31:54.247Z,926.78
2023-04-27T10:32:54.327Z,926.81
2023-04-27T10:33:54.354Z,926.80
2023-04-27T10:34:54.418Z,926.81
2023-04-27T10:35:54.280Z,926.83
2023-04-27T10:36:54.362Z,926.85
2023-04-27T10:37:54.265Z,926.84
2023-04-27T10:38:54.205Z,926.82
2023-04-27T10:39:54.997Z,926.78
2023-04-27T10:40:54.308Z,926.78
2023-04-27T10:41:54.317Z,926.78
2023-04-27T10:42:54.212Z,926.79
2023-04-27T10:43:54.122Z,926.81
2023-04-27T10:44:54.356Z,926.85
2023-04-27T10:45:54.177Z,926.87
2023-04-27T10:46:54.169Z,926.91
2023-04-27T10:47:54.204Z,926.94
2023-04-27T10:48:54.167Z,926.97
2023-04-27T10:49:54.062Z,926.97
2023-04-27T10:50:54.153Z,926.99
2023-04-27T10:51:54.085Z,926.98
2023-04-27T10:52:54.101Z,926.98
2023-04-27T10:53:54.098Z,926.98
2023-04-27T10:54:54.164Z,926.97
2023-04-27T10:55:53.998Z,926.97
2023-04-27T10:56:53.991Z,926.99
2023-04-27T10:57:54.017Z,927.00
2023-04-27T10:58:54.003Z,927.02
2023-04-27T10:59:54.025Z,927.04
2023-04-27T11:00:53.930Z,927.07
2023-04-27T11:01:53.952Z,927.08
2023-04-27T11:02:54.453Z,927.11
2023-04-27T11:03:54.003Z,927.15
2023-04-27T11:04:54.191Z,927.17
2023-04-27T11:05:54.238Z,927.18
2023-04-27T11:06:53.885Z,927.19
2023-04-27T11:07:53.853Z,927.19
2023-04-27T11:08:53.887Z,927.20
2023-04-27T11:09:53.867Z,927.20
2023-04-27T11:10:53.968Z,927.19
2023-04-27T11:11:53.889Z,927.19
2023-04-27T11:12:53.825Z,927.19
2023-04-27T11:13:53.917Z,927.20
2023-04-27T11:14:53.812Z,927.20
2023-04-27T11:15:53.835Z,927.19
2023-04-27T11:16:53.810Z,927.21
2023-04-27T11:17:53.834Z,927.24
2023-04-27T11:18:53.746Z,927.26
2023-04-27T11:19:53.830Z,927.28
2023-04-27T11:20:54.354Z,927.29
2023-04-27T11:21:54.558Z,927.30
2023-04-27T11:22:53.793Z,927.31
2023-04-27T11:23:54.396Z,927.31
2023-04-27T11:24:53.708Z,927.31
2023-04-27T11:25:53.791Z,927.30
2023-04-27T11:26:53.696Z,927.32
2023-04-27T11:27:53.725Z,927.34
2023-04-27T11:28:53.896Z,927.34
2023-04-27T11:29:54.438Z,927.33
2023-04-27T11:30:53.705Z,927.35
2023-04-27T11:31:53.704Z,927.37
2023-04-27T11:32:53.727Z,927.38
2023-04-27T11:33:53.930Z,927.41
2023-04-27T11:34:55.584Z,927.43
2023-04-27T11:35:53.734Z,927.44
2023-04-27T11:36:56.887Z,927.44
2023-04-27T11:37:53.578Z,927.44
2023-04-27T11:38:53.829Z,927.44
2023-04-27T11:39:53.590Z,927.45
2023-04-27T11:40:53.586Z,927.46
2023-04-27T11:41:53.601Z,927.47
2023-04-27T11:42:53.582Z,927.46
2023-04-27T11:43:53.603Z,927.45
2023-04-27T11:44:53.606Z,927.44
2023-04-27T11:45:53.531Z,927.45
2023-04-27T11:46:53.944Z,927.45
2023-04-27T11:47:53.600Z,927.44
2023-04-27T11:48:53.526Z,927.44
2023-04-27T11:49:53.535Z,927.44
2023-04-27T11:50:53.469Z,927.46
2023-04-27T11:51:53.552Z,927.47
2023-04-27T11:52:53.554Z,927.48
2023-04-27T11:53:53.488Z,927.47
2023-04-27T11:54:53.565Z,927.46
2023-04-27T11:55:53.498Z,927.46
2023-04-27T11:56:54.199Z,927.44
2023-04-27T11:57:54.106Z,927.47
2023-04-27T11:58:53.608Z,927.49
2023-04-27T11:59:53.498Z,927.49
2023-04-27T12:00:53.401Z,927.48
2023-04-27T12:01:54.048Z,927.50
2023-04-27T12:02:53.802Z,927.52
2023-04-27T12:03:54.378Z,927.55
2023-04-27T12:04:53.648Z,927.57
2023-04-27T12:05:54.218Z,927.60
2023-04-27T12:06:53.657Z,927.62
2023-04-27T12:07:53.758Z,927.65
2023-04-27T12:08:53.353Z,927.63
2023-04-27T12:09:53.410Z,927.66
2023-04-27T12:10:53.501Z,927.67
2023-04-27T12:11:53.331Z,927.67
2023-04-27T12:12:53.284Z,927.69
2023-04-27T12:13:53.310Z,927.70
2023-04-27T12:14:53.253Z,927.71
2023-04-27T12:15:53.263Z,927.70
2023-04-27T12:16:53.367Z,927.70
2023-04-27T12:17:53.997Z,927.69
2023-04-27T12:18:53.230Z,927.69
2023-04-27T12:19:53.315Z,927.70
2023-04-27T12:20:53.346Z,927.71
2023-04-27T12:21:53.239Z,927.73
2023-04-27T12:22:53.965Z,927.73
2023-04-27T12:23:53.277Z,927.74
2023-04-27T12:24:53.264Z,927.73
2023-04-27T12:25:53.323Z,927.74
2023-04-27T12:26:53.170Z,927.74
2023-04-27T12:27:53.175Z,927.75